Big River, Canada
Current Conditions -  °F | °C
As of 6:00 PM on Friday 24 Oct 2014 (Local Time) from CYLJ Reporting Station
Broken Clouds Broken Clouds  
Wind Chill: 39°   Ceiling: 1400
Heat Index: 45°   Visibility: 15mi
Dew Point: 28°   Wind: 10mph
Humidity: 53%   Direction: 280°W
Pressure: 29.8"   Gusts: NA
Location:  53.83°N, 107.03°W
Report Text: CYLJ 250000Z 28009KT 15SM BKN014 07/M02 A2980 RMK SC6 SLP110
Loading
Personal Weather Stations






























Interactive Weather Map
Tropical Storm Tracking
New forecast layout! Learn more

10-Day Weather Forecast

Advertisements
Track Severe Weather on mobile